Friendship, Maryland
Current Conditions -  °F | °C
As of 6:58 PM on Sunday 25 Jan 2015 (Local Time) from KADW Reporting Station
Overcast Overcast  
Wind Chill: 44°   Ceiling: 5000
Heat Index: 44°   Visibility: 10mi
Dew Point: 33°   Wind: 3mph
Humidity: 64%   Direction: 110°ESE
Pressure: 29.85"   Gusts: NA
Location:  38.74°N, 76.59°W
Report Text: KADW 252358Z AUTO 11003KT 10SM OVC050 07/00 A2985 RMK AO2 SLP117 T00660003 10099 20065 53009 $
Loading
Personal Weather Stations






























Interactive Weather Map New forecast layout! Learn more

10-Day Weather Forecast

Advertisements
Track Severe Weather on mobile